createdAt,value
2022-09-17T00:01:21.482Z,1.43
2022-09-17T00:03:53.940Z,1.50
2022-09-17T00:06:21.977Z,1.43
2022-09-17T00:08:49.128Z,1.33
2022-09-17T00:11:22.871Z,1.20
2022-09-17T00:13:52.154Z,1.53
2022-09-17T00:16:29.024Z,1.90
2022-09-17T00:18:57.082Z,1.77
2022-09-17T00:21:25.002Z,1.10
2022-09-17T00:24:00.304Z,1.40
2022-09-17T00:26:28.962Z,1.00
2022-09-17T00:28:57.436Z,1.13
2022-09-17T00:31:25.323Z,0.90
2022-09-17T00:33:53.041Z,0.70
2022-09-17T00:36:21.013Z,1.20
2022-09-17T00:38:56.129Z,1.10
2022-09-17T00:41:25.681Z,0.67
2022-09-17T00:43:57.970Z,0.73
2022-09-17T00:46:44.282Z,0.80
2022-09-17T00:49:21.945Z,1.27
2022-09-17T00:52:00.436Z,0.90
2022-09-17T00:54:28.778Z,1.60
2022-09-17T00:56:57.106Z,0.83
2022-09-17T00:59:24.712Z,1.00
2022-09-17T01:01:52.970Z,1.20
2022-09-17T01:04:23.154Z,0.83
2022-09-17T01:07:17.166Z,0.90
2022-09-17T01:10:07.806Z,1.50
2022-09-17T01:12:45.380Z,1.10
2022-09-17T01:15:12.376Z,1.17
2022-09-17T01:17:43.796Z,0.90
2022-09-17T01:20:48.539Z,1.30
2022-09-17T01:23:38.818Z,1.77
2022-09-17T01:26:27.127Z,1.03
2022-09-17T01:29:24.026Z,1.00
2022-09-17T01:32:07.816Z,1.20
2022-09-17T01:35:12.352Z,1.60
2022-09-17T01:37:54.412Z,0.90
2022-09-17T01:40:41.641Z,0.83
2022-09-17T01:43:30.159Z,1.00
2022-09-17T01:46:15.109Z,0.80
2022-09-17T01:48:46.521Z,0.90
2022-09-17T01:51:19.010Z,0.80
2022-09-17T01:54:10.273Z,0.90
2022-09-17T01:56:58.991Z,0.80
2022-09-17T01:59:38.218Z,1.67
2022-09-17T02:02:21.124Z,1.00
2022-09-17T02:05:02.454Z,0.47
2022-09-17T02:07:32.741Z,0.73
2022-09-17T02:10:08.043Z,0.50
2022-09-17T02:12:40.836Z,0.50
2022-09-17T02:15:18.823Z,0.57
2022-09-17T02:18:11.389Z,0.40
2022-09-17T02:20:45.236Z,0.70
2022-09-17T02:23:18.213Z,0.70
2022-09-17T02:25:54.028Z,0.47
2022-09-17T02:28:36.575Z,0.60
2022-09-17T02:31:03.844Z,0.67
2022-09-17T02:33:33.368Z,0.60
2022-09-17T02:36:01.593Z,0.70
2022-09-17T02:38:31.074Z,1.00
2022-09-17T02:41:01.256Z,1.13
2022-09-17T02:43:47.550Z,0.93
2022-09-17T02:46:38.826Z,0.97
2022-09-17T02:49:25.521Z,0.53
2022-09-17T02:52:13.513Z,0.90
2022-09-17T02:54:58.923Z,1.00
2022-09-17T02:57:44.834Z,0.90
2022-09-17T03:00:16.887Z,0.90
2022-09-17T03:03:06.109Z,1.17
2022-09-17T03:05:36.581Z,0.97
2022-09-17T03:08:03.622Z,0.77
2022-09-17T03:10:33.610Z,1.10
2022-09-17T03:13:00.645Z,1.00
2022-09-17T03:15:28.425Z,1.40
2022-09-17T03:17:55.711Z,1.47
2022-09-17T03:20:23.314Z,1.37
2022-09-17T03:22:52.418Z,1.57
2022-09-17T03:25:19.510Z,1.57
2022-09-17T03:27:47.711Z,1.20
2022-09-17T03:30:14.726Z,1.00
2022-09-17T03:32:41.753Z,1.57
2022-09-17T03:35:08.903Z,1.30
2022-09-17T03:37:36.224Z,1.50
2022-09-17T03:40:03.647Z,1.60
2022-09-17T03:42:30.843Z,1.40
2022-09-17T03:44:57.856Z,1.90
2022-09-17T03:47:24.861Z,1.80
2022-09-17T03:49:52.329Z,1.37
2022-09-17T03:52:19.405Z,1.37
2022-09-17T03:54:46.381Z,1.50
2022-09-17T03:57:13.404Z,1.20
2022-09-17T03:59:40.379Z,1.43
2022-09-17T04:02:07.431Z,1.40
2022-09-17T04:04:34.569Z,1.13
2022-09-17T04:07:01.511Z,1.33
2022-09-17T04:09:29.967Z,2.00
2022-09-17T04:11:57.016Z,2.17
2022-09-17T04:14:23.992Z,1.60
2022-09-17T04:16:50.924Z,2.20
2022-09-17T04:19:17.856Z,1.50
2022-09-17T04:21:45.122Z,1.23
2022-09-17T04:24:12.149Z,1.40
2022-09-17T04:26:39.168Z,1.40
2022-09-17T04:29:06.178Z,1.33
2022-09-17T04:31:33.545Z,1.30
2022-09-17T04:34:00.562Z,1.80
2022-09-17T04:36:27.849Z,1.13
2022-09-17T04:38:54.901Z,1.33
2022-09-17T04:41:21.863Z,1.33
2022-09-17T04:43:48.868Z,1.33
2022-09-17T04:46:16.886Z,0.90
2022-09-17T04:48:44.057Z,1.10
2022-09-17T04:51:11.149Z,1.23
2022-09-17T04:53:38.788Z,1.40
2022-09-17T04:56:06.088Z,0.97
2022-09-17T04:58:33.160Z,1.13
2022-09-17T05:01:00.275Z,1.03
2022-09-17T05:03:27.286Z,1.10
2022-09-17T05:05:54.382Z,0.70
2022-09-17T05:08:22.998Z,1.30
2022-09-17T05:10:51.443Z,1.17
2022-09-17T05:13:19.074Z,0.90
2022-09-17T05:15:46.292Z,0.87
2022-09-17T05:18:13.359Z,1.10
2022-09-17T05:20:40.412Z,1.20
2022-09-17T05:23:07.598Z,0.97
2022-09-17T05:25:34.681Z,0.87
2022-09-17T05:28:01.882Z,0.73
2022-09-17T05:30:29.161Z,0.50
2022-09-17T05:33:03.237Z,1.30
2022-09-17T05:35:33.017Z,0.77
2022-09-17T05:38:05.221Z,0.80
2022-09-17T05:40:35.095Z,0.63
2022-09-17T05:43:04.693Z,0.80
2022-09-17T05:45:33.517Z,0.70
2022-09-17T05:48:02.061Z,0.70
2022-09-17T05:50:30.443Z,0.80
2022-09-17T05:52:57.988Z,0.90
2022-09-17T05:55:25.125Z,0.80
2022-09-17T05:57:52.109Z,0.70
2022-09-17T06:00:19.222Z,0.83
2022-09-17T06:02:46.257Z,0.90
2022-09-17T06:05:13.341Z,1.17
2022-09-17T06:07:40.432Z,1.10
2022-09-17T06:10:08.569Z,0.60
2022-09-17T06:12:35.810Z,0.70
2022-09-17T06:15:04.238Z,0.60
2022-09-17T06:17:35.230Z,1.27
2022-09-17T06:20:06.343Z,0.50
2022-09-17T06:22:33.549Z,0.60
2022-09-17T06:25:02.362Z,0.70
2022-09-17T06:27:33.261Z,1.07
2022-09-17T06:30:00.566Z,0.67
2022-09-17T06:32:28.817Z,0.70
2022-09-17T06:34:58.597Z,0.70
2022-09-17T06:37:29.999Z,0.83
2022-09-17T06:39:57.551Z,1.60
2022-09-17T06:42:24.798Z,1.37
2022-09-17T06:44:52.016Z,0.83
2022-09-17T06:47:19.024Z,0.90
2022-09-17T06:49:45.969Z,2.13
2022-09-17T06:52:12.911Z,0.83
2022-09-17T06:54:39.896Z,0.60
2022-09-17T06:57:06.881Z,1.13
2022-09-17T06:59:33.813Z,1.17
2022-09-17T07:02:00.803Z,0.80
2022-09-17T07:04:27.978Z,1.23
2022-09-17T07:06:55.025Z,1.23
2022-09-17T07:09:22.014Z,0.87
2022-09-17T07:11:49.044Z,0.80
2022-09-17T07:14:16.071Z,1.07
2022-09-17T07:16:43.026Z,1.10
2022-09-17T07:19:11.175Z,0.63
2022-09-17T07:21:38.243Z,0.90
2022-09-17T07:24:05.884Z,1.60
2022-09-17T07:26:32.837Z,1.17
2022-09-17T07:29:00.018Z,0.90
2022-09-17T07:31:27.097Z,0.80
2022-09-17T07:33:54.186Z,0.70
2022-09-17T07:36:21.314Z,0.90
2022-09-17T07:38:48.322Z,1.03
2022-09-17T07:41:17.516Z,1.00
2022-09-17T07:43:44.898Z,0.70
2022-09-17T07:46:17.742Z,0.93
2022-09-17T07:48:45.096Z,1.00
2022-09-17T07:51:23.885Z,0.90
2022-09-17T07:53:55.075Z,0.60
2022-09-17T07:56:22.837Z,0.80
2022-09-17T07:58:50.152Z,0.80
2022-09-17T08:01:18.188Z,0.80
2022-09-17T08:03:52.701Z,0.73
2022-09-17T08:06:22.893Z,0.80
2022-09-17T08:08:50.542Z,0.83
2022-09-17T08:11:44.520Z,0.80
2022-09-17T08:14:12.916Z,0.90
2022-09-17T08:16:40.414Z,0.70
2022-09-17T08:19:10.916Z,1.00
2022-09-17T08:21:38.023Z,0.60
2022-09-17T08:24:05.211Z,0.80
2022-09-17T08:26:32.717Z,0.70
2022-09-17T08:29:00.094Z,0.80
2022-09-17T08:31:30.190Z,0.63
2022-09-17T08:33:57.920Z,0.53
2022-09-17T08:36:26.382Z,0.60
2022-09-17T08:38:54.774Z,0.70
2022-09-17T08:41:42.429Z,0.83
2022-09-17T08:44:19.596Z,0.73
2022-09-17T08:46:48.029Z,0.70
2022-09-17T08:49:38.307Z,0.70
2022-09-17T08:52:23.992Z,0.80
2022-09-17T08:54:59.264Z,0.73
2022-09-17T08:57:32.031Z,0.70
2022-09-17T09:00:13.981Z,0.60
2022-09-17T09:02:50.298Z,0.90
2022-09-17T09:05:21.881Z,0.80
2022-09-17T09:07:54.796Z,0.80
2022-09-17T09:10:41.973Z,0.70
2022-09-17T09:13:11.432Z,0.90
2022-09-17T09:15:47.316Z,0.43
2022-09-17T09:18:21.256Z,0.80
2022-09-17T09:21:04.096Z,0.83
2022-09-17T09:23:40.836Z,0.93
2022-09-17T09:26:18.288Z,0.70
2022-09-17T09:28:57.092Z,1.17
2022-09-17T09:31:26.953Z,1.13
2022-09-17T09:33:55.454Z,0.90
2022-09-17T09:36:22.443Z,0.70
2022-09-17T09:38:53.799Z,0.57
2022-09-17T09:41:32.985Z,0.90
2022-09-17T09:44:11.295Z,0.73
2022-09-17T09:47:13.383Z,1.10
2022-09-17T09:49:55.066Z,1.00
2022-09-17T09:53:06.106Z,0.83
2022-09-17T09:55:48.032Z,0.83
2022-09-17T09:58:37.602Z,1.33
2022-09-17T10:01:16.158Z,0.70
2022-09-17T10:03:46.289Z,0.80
2022-09-17T10:06:15.024Z,1.00
2022-09-17T10:09:03.071Z,1.00
2022-09-17T10:11:35.163Z,0.73
2022-09-17T10:14:26.848Z,1.20
2022-09-17T10:17:21.019Z,0.70
2022-09-17T10:20:12.458Z,0.80
2022-09-17T10:22:44.770Z,0.87
2022-09-17T10:25:42.102Z,0.83
2022-09-17T10:28:23.522Z,0.90
2022-09-17T10:31:04.126Z,0.77
2022-09-17T10:33:36.951Z,0.60
2022-09-17T10:36:04.516Z,1.00
2022-09-17T10:38:32.762Z,0.90
2022-09-17T10:41:25.161Z,0.87
2022-09-17T10:43:52.264Z,0.60
2022-09-17T10:46:27.750Z,0.60
2022-09-17T10:49:06.289Z,0.70
2022-09-17T10:51:33.371Z,0.60
2022-09-17T10:54:18.732Z,0.70
2022-09-17T10:56:51.579Z,1.07
2022-09-17T10:59:29.479Z,0.60
2022-09-17T11:02:20.958Z,0.50
2022-09-17T11:04:56.933Z,0.80
2022-09-17T11:07:38.116Z,0.70
2022-09-17T11:10:16.945Z,0.70
2022-09-17T11:12:55.909Z,0.80
2022-09-17T11:15:31.816Z,1.07
2022-09-17T11:18:20.252Z,1.10
2022-09-17T11:21:11.109Z,0.90
2022-09-17T11:23:59.131Z,0.70
2022-09-17T11:26:46.437Z,1.00
2022-09-17T11:29:51.046Z,0.90
2022-09-17T11:32:40.660Z,0.70
2022-09-17T11:35:22.619Z,0.87
2022-09-17T11:37:59.106Z,0.80
2022-09-17T11:40:50.265Z,0.80
2022-09-17T11:43:57.249Z,0.90
2022-09-17T11:46:39.258Z,0.73
2022-09-17T11:49:13.616Z,0.97
2022-09-17T11:51:50.534Z,0.60
2022-09-17T11:54:36.230Z,1.00
2022-09-17T11:57:25.249Z,0.87
2022-09-17T12:00:34.577Z,0.90
2022-09-17T12:03:10.655Z,0.80
2022-09-17T12:05:42.939Z,0.97
2022-09-17T12:08:26.166Z,0.80
2022-09-17T12:11:18.051Z,0.80
2022-09-17T12:14:31.904Z,1.00
2022-09-17T12:17:02.987Z,0.80
2022-09-17T12:19:42.516Z,0.70
2022-09-17T12:22:09.559Z,0.70
2022-09-17T12:24:37.992Z,1.10
2022-09-17T12:27:11.200Z,1.40
2022-09-17T12:30:09.917Z,0.90
2022-09-17T12:33:04.280Z,1.20
2022-09-17T12:36:03.453Z,0.90
2022-09-17T12:39:02.908Z,0.70
2022-09-17T12:41:59.721Z,0.70
2022-09-17T12:44:45.129Z,1.10
2022-09-17T12:48:06.629Z,0.70
2022-09-17T12:51:01.481Z,0.70
2022-09-17T12:53:30.331Z,0.83
2022-09-17T12:56:45.037Z,0.90
2022-09-17T12:59:16.054Z,1.00
2022-09-17T13:02:01.423Z,1.03
2022-09-17T13:05:00.395Z,0.90
2022-09-17T13:07:58.587Z,0.80
2022-09-17T13:10:44.817Z,0.70
2022-09-17T13:13:20.979Z,1.63
2022-09-17T13:16:01.295Z,0.83
2022-09-17T13:18:41.727Z,0.80
2022-09-17T13:21:30.345Z,1.30
2022-09-17T13:23:58.572Z,0.93
2022-09-17T13:26:37.769Z,0.83
2022-09-17T13:29:09.866Z,1.03
2022-09-17T13:31:39.577Z,1.00
2022-09-17T13:34:19.043Z,0.97
2022-09-17T13:36:54.682Z,0.83
2022-09-17T13:39:41.951Z,0.70
2022-09-17T13:42:28.972Z,0.80
2022-09-17T13:45:08.746Z,0.77
2022-09-17T13:47:59.593Z,0.70
2022-09-17T13:50:36.289Z,0.83
2022-09-17T13:53:14.293Z,0.90
2022-09-17T13:55:48.975Z,0.90
2022-09-17T13:58:18.999Z,1.20
2022-09-17T14:01:02.489Z,0.70
2022-09-17T14:03:37.115Z,1.93
2022-09-17T14:06:18.091Z,0.67
2022-09-17T14:08:45.250Z,0.63
2022-09-17T14:11:39.485Z,0.50
2022-09-17T14:14:07.910Z,1.00
2022-09-17T14:16:45.215Z,1.97
2022-09-17T14:19:22.585Z,0.97
2022-09-17T14:22:00.695Z,1.10
2022-09-17T14:24:36.827Z,0.67
2022-09-17T14:27:20.241Z,0.83
2022-09-17T14:29:55.672Z,0.70
2022-09-17T14:32:32.444Z,0.77
2022-09-17T14:35:02.489Z,0.70
2022-09-17T14:37:30.219Z,0.87
2022-09-17T14:39:57.299Z,0.60
2022-09-17T14:42:35.139Z,0.90
2022-09-17T14:45:29.706Z,0.60
2022-09-17T14:48:29.211Z,0.57
2022-09-17T14:51:25.419Z,0.87
2022-09-17T14:54:05.685Z,0.73
2022-09-17T14:56:44.835Z,0.70
2022-09-17T14:59:22.732Z,0.93
2022-09-17T15:01:49.962Z,0.70
2022-09-17T15:04:26.347Z,0.70
2022-09-17T15:07:05.913Z,1.00
2022-09-17T15:09:32.892Z,0.77
2022-09-17T15:12:01.152Z,0.73
2022-09-17T15:14:34.547Z,1.00
2022-09-17T15:17:03.893Z,0.80
2022-09-17T15:19:37.324Z,0.90
2022-09-17T15:22:18.151Z,0.93
2022-09-17T15:24:54.148Z,0.53
2022-09-17T15:27:27.096Z,0.97
2022-09-17T15:30:02.343Z,0.77
2022-09-17T15:32:29.552Z,1.00
2022-09-17T15:35:18.389Z,0.60
2022-09-17T15:38:18.849Z,1.00
2022-09-17T15:40:43.000Z,0.80
2022-09-17T15:43:28.376Z,0.87
2022-09-17T15:45:56.277Z,0.70
2022-09-17T15:48:39.625Z,0.83
2022-09-17T15:51:22.883Z,0.50
2022-09-17T15:53:58.571Z,0.70
2022-09-17T15:56:31.376Z,0.63
2022-09-17T15:59:25.141Z,0.97
2022-09-17T16:01:55.794Z,0.80
2022-09-17T16:04:34.366Z,0.53
2022-09-17T16:07:13.020Z,0.83
2022-09-17T16:09:46.939Z,0.60
2022-09-17T16:12:19.476Z,0.80
2022-09-17T16:14:48.481Z,0.70
2022-09-17T16:17:43.273Z,0.50
2022-09-17T16:20:16.587Z,0.80
2022-09-17T16:22:44.880Z,1.20
2022-09-17T16:25:12.111Z,0.60
2022-09-17T16:27:50.555Z,0.90
2022-09-17T16:30:20.509Z,0.67
2022-09-17T16:32:47.790Z,0.70
2022-09-17T16:35:26.040Z,1.00
2022-09-17T16:37:54.857Z,0.60
2022-09-17T16:40:24.809Z,0.70
2022-09-17T16:42:51.971Z,0.73
2022-09-17T16:45:18.939Z,0.80
2022-09-17T16:47:46.202Z,0.90
2022-09-17T16:50:15.589Z,0.77
2022-09-17T16:52:43.862Z,0.67
2022-09-17T16:55:13.140Z,0.73
2022-09-17T16:57:40.226Z,0.60
2022-09-17T17:00:12.966Z,0.80
2022-09-17T17:02:40.183Z,0.50
2022-09-17T17:05:07.633Z,0.60
2022-09-17T17:07:35.726Z,1.00
2022-09-17T17:10:09.051Z,0.70
2022-09-17T17:12:37.336Z,0.87
2022-09-17T17:15:09.295Z,1.00
2022-09-17T17:17:36.947Z,0.60
2022-09-17T17:20:08.630Z,0.77
2022-09-17T17:22:37.237Z,0.70
2022-09-17T17:25:05.916Z,0.83
2022-09-17T17:27:33.575Z,0.87
2022-09-17T17:30:06.492Z,1.00
2022-09-17T17:32:34.836Z,0.60
2022-09-17T17:35:02.494Z,0.70
2022-09-17T17:37:29.756Z,0.80
2022-09-17T17:39:58.284Z,1.10
2022-09-17T17:42:25.396Z,1.00
2022-09-17T17:44:52.430Z,0.90
2022-09-17T17:47:19.379Z,1.00
2022-09-17T17:49:46.381Z,0.80
2022-09-17T17:52:13.300Z,0.80
2022-09-17T17:54:40.237Z,0.80
2022-09-17T17:57:07.523Z,0.60
2022-09-17T17:59:34.449Z,0.90
2022-09-17T18:02:01.696Z,0.90
2022-09-17T18:04:28.676Z,1.00
2022-09-17T18:06:55.672Z,0.70
2022-09-17T18:09:22.565Z,0.73
2022-09-17T18:11:49.644Z,1.20
2022-09-17T18:14:16.704Z,0.70
2022-09-17T18:16:43.764Z,0.77
2022-09-17T18:19:11.731Z,1.00
2022-09-17T18:21:38.768Z,0.40
2022-09-17T18:24:05.965Z,1.50
2022-09-17T18:26:34.301Z,0.50
2022-09-17T18:29:07.000Z,0.50
2022-09-17T18:31:35.899Z,1.07
2022-09-17T18:34:15.027Z,0.70
2022-09-17T18:36:44.011Z,0.53
2022-09-17T18:42:01.915Z,1.20
2022-09-17T18:44:28.832Z,1.00
2022-09-17T18:46:55.920Z,0.70
2022-09-17T18:49:23.067Z,1.00
2022-09-17T18:51:50.365Z,0.60
2022-09-17T18:54:17.309Z,0.80
2022-09-17T18:56:44.460Z,1.13
2022-09-17T18:59:11.603Z,1.07
2022-09-17T19:01:38.589Z,0.97
2022-09-17T19:04:07.740Z,0.87
2022-09-17T19:06:35.638Z,1.00
2022-09-17T19:09:06.301Z,0.70
2022-09-17T19:11:35.702Z,0.60
2022-09-17T19:14:02.773Z,0.80
2022-09-17T19:16:29.830Z,1.50
2022-09-17T19:18:56.937Z,0.60
2022-09-17T19:21:24.073Z,0.80
2022-09-17T19:23:52.334Z,1.13
2022-09-17T19:26:22.159Z,0.87
2022-09-17T19:28:57.782Z,0.83
2022-09-17T19:31:25.702Z,0.93
2022-09-17T19:33:53.156Z,0.70
2022-09-17T19:36:20.572Z,1.10
2022-09-17T19:38:48.118Z,1.87
2022-09-17T19:41:20.937Z,4.53
2022-09-17T19:43:52.904Z,2.67
2022-09-17T19:46:22.199Z,2.70
2022-09-17T19:48:54.622Z,2.60
2022-09-17T19:51:23.772Z,3.00
2022-09-17T19:53:51.191Z,2.70
2022-09-17T19:56:23.499Z,2.77
2022-09-17T19:58:50.674Z,2.70
2022-09-17T20:01:18.394Z,2.13
2022-09-17T20:03:45.956Z,3.17
2022-09-17T20:06:15.457Z,2.13
2022-09-17T20:08:50.596Z,2.47
2022-09-17T20:11:19.211Z,2.00
2022-09-17T20:13:46.354Z,2.13
2022-09-17T20:16:21.912Z,1.30
2022-09-17T20:18:49.834Z,1.33
2022-09-17T20:21:28.796Z,1.90
2022-09-17T20:23:56.777Z,1.70
2022-09-17T20:26:23.892Z,1.73
2022-09-17T20:28:51.790Z,1.60
2022-09-17T20:31:24.086Z,1.90
2022-09-17T20:33:53.271Z,2.20
2022-09-17T20:36:22.197Z,2.77
2022-09-17T20:41:39.143Z,2.00
2022-09-17T20:44:07.297Z,2.07
2022-09-17T20:46:34.342Z,1.80
2022-09-17T20:49:01.312Z,1.70
2022-09-17T20:51:30.187Z,2.03
2022-09-17T20:53:57.885Z,2.07
2022-09-17T20:56:28.079Z,2.23
2022-09-17T20:59:03.356Z,1.73
2022-09-17T21:01:36.854Z,1.80
2022-09-17T21:04:08.113Z,1.27
2022-09-17T21:06:38.073Z,1.87
2022-09-17T21:09:10.403Z,1.90
2022-09-17T21:11:37.941Z,2.00
2022-09-17T21:14:05.061Z,1.70
2022-09-17T21:16:32.220Z,1.80
2022-09-17T21:19:05.551Z,1.47
2022-09-17T21:21:35.876Z,1.40
2022-09-17T21:24:05.380Z,1.20
2022-09-17T21:26:33.294Z,1.30
2022-09-17T21:29:00.302Z,1.00
2022-09-17T21:31:32.407Z,1.63
2022-09-17T21:34:02.354Z,1.30
2022-09-17T21:36:32.181Z,4.87
2022-09-17T21:39:07.963Z,8.03
2022-09-17T21:41:38.602Z,6.77
2022-09-17T21:44:08.782Z,5.40
2022-09-17T21:46:36.809Z,5.60
2022-09-17T21:49:05.033Z,4.77
2022-09-17T21:51:40.711Z,4.33
2022-09-17T21:54:10.224Z,3.83
2022-09-17T21:56:38.106Z,3.20
2022-09-17T21:59:07.719Z,3.23
2022-09-17T22:01:39.870Z,2.50
2022-09-17T22:04:12.580Z,2.03
2022-09-17T22:06:40.799Z,1.70
2022-09-17T22:09:12.671Z,1.60
2022-09-17T22:11:39.610Z,1.77
2022-09-17T22:14:19.715Z,1.60
2022-09-17T22:16:53.165Z,1.70
2022-09-17T22:19:22.169Z,1.60
2022-09-17T22:21:51.536Z,1.70
2022-09-17T22:24:20.336Z,1.70
2022-09-17T22:26:55.702Z,1.33
2022-09-17T22:29:24.714Z,1.70
2022-09-17T22:31:51.723Z,1.70
2022-09-17T22:34:21.528Z,1.40
2022-09-17T22:36:49.383Z,2.70
2022-09-17T22:39:19.020Z,1.50
2022-09-17T22:41:46.096Z,1.70
2022-09-17T22:44:18.412Z,1.70
2022-09-17T22:46:47.307Z,2.10
2022-09-17T22:49:14.957Z,1.80
2022-09-17T22:51:42.723Z,1.90
2022-09-17T22:54:15.473Z,1.90
2022-09-17T22:56:42.912Z,1.80
2022-09-17T22:59:10.826Z,1.90
2022-09-17T23:01:39.335Z,2.40
2022-09-17T23:04:06.730Z,2.10
2022-09-17T23:06:38.020Z,2.47
2022-09-17T23:09:05.830Z,1.73
2022-09-17T23:11:36.528Z,1.73
2022-09-17T23:14:05.853Z,2.27
2022-09-17T23:16:38.331Z,2.63
2022-09-17T23:19:05.351Z,2.57
2022-09-17T23:21:32.645Z,2.40
2022-09-17T23:23:59.715Z,2.83
2022-09-17T23:26:28.674Z,2.63
2022-09-17T23:28:57.386Z,2.90
2022-09-17T23:31:28.115Z,3.20
2022-09-17T23:33:56.793Z,4.10
2022-09-17T23:36:30.083Z,3.50
2022-09-17T23:38:58.416Z,4.50
2022-09-17T23:41:31.796Z,4.10
2022-09-17T23:44:02.410Z,4.67
2022-09-17T23:46:32.383Z,4.23
2022-09-17T23:48:59.806Z,5.07
2022-09-17T23:51:28.493Z,4.60
2022-09-17T23:53:55.686Z,4.27
2022-09-17T23:56:25.244Z,4.70
2022-09-17T23:58:54.242Z,4.10
